This is the latest recevied weather packets stored in our database for station/object DG2YCM-10. If no packets are shown the sender has not sent any weather packets the latest 10 day(s).
| Time | Temp. | Humidity | Pressure | Rain* | Wind** | Luminosity | Snow |
|---|---|---|---|---|---|---|---|
| 1777712522 | 21.11° C | 48% | 1015 hPa | - | - | - | - |
| 1777708981 | 18.33° C | 47% | 1015.5 hPa | - | - | - | - |
| 1777705441 | 15.56° C | 56% | 1015.8 hPa | - | - | - | - |
| 1777701901 | 10.56° C | 73% | 1016.1 hPa | - | - | - | - |
| 1777698361 | 8.89° C | 78% | 1015.9 hPa | - | - | - | - |
| 1777694821 | 7.78° C | 81% | 1015.5 hPa | - | - | - | - |
| 1777691302 | 8.33° C | 77% | - | - | - | - | - |
| 1777691281 | 8.33° C | 77% | 1015.8 hPa | - | - | - | - |
| 1777687740 | 8.89° C | 74% | 1015.7 hPa | - | - | - | - |
| 1777684200 | 9.44° C | 71% | 1015.9 hPa | - | - | - | - |
| 1777680660 | 10.56° C | 67% | 1016.1 hPa | - | - | - | - |
| 1777677120 | 11.67° C | 60% | 1016.3 hPa | - | - | - | - |
| 1777673580 | 13.33° C | 55% | 1016.4 hPa | - | - | - | - |
| 1777670040 | 13.89° C | 51% | 1016.2 hPa | - | - | - | - |
| 1777666500 | 16.11° C | 42% | 1016.3 hPa | - | - | - | - |
| 1777662960 | 18.33° C | 35% | 1016 hPa | - | - | - | - |
| 1777659420 | 21.11° C | 27% | 1015.8 hPa | - | - | - | - |
| 1777655879 | 23.33° C | 21% | 1015.9 hPa | - | - | - | - |
| 1777652339 | 24.44° C | 20% | 1016.1 hPa | - | - | - | - |
| 1777648799 | 25° C | 18% | 1016.5 hPa | - | - | - | - |
| 1777645259 | 25° C | 18% | 1016.8 hPa | - | - | - | - |
| 1777641719 | 25° C | 19% | 1017.2 hPa | - | - | - | - |
| 1777638179 | 23.89° C | 19% | 1017.7 hPa | - | - | - | - |
| 1777634639 | 22.22° C | 20% | 1018.4 hPa | - | - | - | - |
| 1777631099 | 22.78° C | 20% | 1018.8 hPa | - | - | - | - |
* Rain since midnight (hover to see other rain measurements)
** Current wind speed in m/s (hover to see current wind gust speed)